This is the latest recevied weather packets stored in our database for station/object K3BAY-1. If no packets are shown the sender has not sent any weather packets the latest 10 day(s).
| Time | Temp. | Humidity | Pressure | Rain* | Wind** | Luminosity | Snow |
|---|---|---|---|---|---|---|---|
| 1777760616 | 15° C | 46% | 1011.5 hPa | 0 mm | - | 78 W/m² | - |
| 1777760311 | 15° C | 48% | 1011.5 hPa | 0 mm | - | 68 W/m² | - |
| 1777760008 | 15° C | 51% | 1011.5 hPa | 0 mm | - | 89 W/m² | - |
| 1777759706 | 15° C | 49% | 1011.5 hPa | 0 mm | - | 118 W/m² | - |
| 1777759401 | 15° C | 46% | 1011.9 hPa | 0 mm | - | 187 W/m² | - |
| 1777757886 | 15° C | 48% | 1012.2 hPa | 0 mm | - | 108 W/m² | - |
| 1777756980 | 15° C | 50% | 1012.6 hPa | 0 mm | - | 75 W/m² | - |
| 1777754858 | 15° C | 46% | 1012.9 hPa | 0 mm | - | 129 W/m² | - |
| 1777753040 | 15.56° C | 42% | 1012.6 hPa | 0 mm | - | 418 W/m² | - |
| 1777751827 | 15.56° C | 41% | 1012.6 hPa | 0 mm | - | 620 W/m² | - |
| 1777749572 | 14.44° C | 48% | 1012.9 hPa | 0 mm | - | 154 W/m² | - |
| 1777749270 | 14.44° C | 48% | 1012.9 hPa | 0 mm | - | 154 W/m² | - |
| 1777748967 | 14.44° C | 48% | 1012.9 hPa | 0 mm | - | 154 W/m² | - |
| 1777748664 | 15° C | 48% | 1012.9 hPa | 0 mm | - | 196 W/m² | - |
| 1777748360 | 14.44° C | 47% | 1012.9 hPa | 0 mm | - | 502 W/m² | - |
| 1777748056 | 15° C | 46% | 1013.2 hPa | 0 mm | - | 163 W/m² | - |
| 1777747449 | 15.56° C | 45% | 1013.2 hPa | 0 mm | - | 574 W/m² | - |
| 1777747145 | 15° C | 48% | 1013.6 hPa | 0 mm | - | 548 W/m² | - |
| 1777746841 | 15° C | 45% | 1013.2 hPa | 0 mm | - | 663 W/m² | - |
| 1777746537 | 15° C | 48% | 1013.2 hPa | 0 mm | - | 363 W/m² | - |
| 1777745325 | 16.11° C | 46% | 1013.2 hPa | 0 mm | - | 738 W/m² | - |
| 1777745023 | 15.56° C | 44% | 1012.9 hPa | 0 mm | - | 617 W/m² | - |
| 1777744718 | 15.56° C | 44% | 1013.2 hPa | 0 mm | - | 685 W/m² | - |
| 1777744110 | 15° C | 46% | 1012.9 hPa | 0 mm | - | 730 W/m² | - |
| 1777742899 | 15° C | 49% | 1013.2 hPa | 0 mm | - | 628 W/m² | - |
* Rain latest hour (hover to see other rain measurements)
** Current wind speed in m/s (hover to see current wind gust speed)